メインページ
METAR-TAF:

METAR-TAF

空港 :

テヘラン, イラン

メヘラーバード国際空港

緯度: 35-41N, 経度: 051-21E, 海抜: 1204m

現時点の気象観測

当レポートは21分前の11:30(UTC)に作成
南西の風 12kt
気温 33°C
湿度 9%
気圧 1012 hPa
視程: 7000m
高度4000ftの雲はほとんどない
高度20000ftの雲は散在している

METAR: OIII 241130Z 23012KT 7000 FEW040 SCT200 33/M04 Q1012 A2989 NOSIG

時間: 16:21 (11:51 UTC)

予報

当レポートは41分前の11:10(UTC)に作成
予報は24日の 12時(UTC)から 25日の 18時(UTC)まで有効
西/南西の風 12kt
視程: 7000m
高度4000ftの雲はほとんどない
高度10000ftの千切れ雲あり
24日の 12時(UTC)から 24日の 16時(UTC)まで一時的に
西/南西の風 16kt、最大27ktの突風を伴う
視程: 3000m
高度3500ftの雲はほとんどない, 積乱雲.
高度4000ftの雲は散在している
高度9000ftの千切れ雲あり
24日の 18時(UTC)から 24日の 20時(UTC)まで徐々に
北/北西の風 10kt
視程: 7000m
高度4000ftの雲はほとんどない
25日の 06時(UTC)から 25日の 08時(UTC)まで徐々に
西の風 12kt
25日の 06時(UTC)から 25日の 10時(UTC)まで一時的に
視程: 4000m
広範な塵

TAF: OIII 241110Z 2412/2518 24006MPS 7000 FEW040 BKN100 TEMPO 2412/2416 24008G14MPS 3000 SA FEW035CB SCT040 BKN090 BECMG 2418/2420 33005MPS 7000 FEW040 BECMG 2506/2508 27006MPS TEMPO 2506/2510 4000 DU

4,000以上の空港の気象観測と天気予報(METAR報とTAF報)

利用可能な観測所は地図上に黄色い丸と赤い丸で示す。

丸の上にカーソルを重ねると観測所名を参照できる。

次にクリックすると気象観測と天気予報を参照できる。

マップの切り替え:黒色「×」印の緑ボタンをクリックして拡大、「-」印の緑ボタンをクリックして縮小、緑色の三角印をクリックして隣りの地図に切り替え


METAR-TAF: